Time;durP1;ratioP1;P1;durP2;ratioP2;P2;SDS_P1;SDS_P2;PMS_P1;PMS_P2;Temp;Humidity;BMP_temperature;BMP_pressure;BME280_temperature;BME280_humidity;BME280_pressure;Samples;Min_cycle;Max_cycle;Signal;HPM_P1;HPM_P2
2024/04/10 00:00:20;;;;;;;0.95;0.25;;;7.90;15.90;;;;;;5141667;27;20023;-78
2024/04/10 00:02:48;;;;;;;0.65;0.40;;;7.90;17.30;;;;;;5168379;27;20027;-78
2024/04/10 00:05:17;;;;;;;1.17;0.30;;;7.80;19.30;;;;;;5169033;27;20023;-78
2024/04/10 00:07:45;;;;;;;0.47;0.25;;;7.80;21.60;;;;;;5130105;27;20012;-79
2024/04/10 00:10:13;;;;;;;0.20;0.20;;;7.80;24.90;;;;;;5162618;27;20711;-78
2024/04/10 00:12:40;;;;;;;0.20;0.20;;;7.80;28.60;;;;;;5176610;27;20008;-78
2024/04/10 00:15:07;;;;;;;1.55;0.70;;;7.70;32.60;;;;;;5167592;27;20004;-78
2024/04/10 00:17:34;;;;;;;1.05;0.57;;;7.70;39.10;;;;;;5168518;27;20452;-78
2024/04/10 00:20:02;;;;;;;0.15;0.10;;;7.70;45.60;;;;;;5168816;27;19999;-78
2024/04/10 00:22:29;;;;;;;0.20;0.20;;;7.70;50.90;;;;;;5140617;27;20043;-78
2024/04/10 00:24:56;;;;;;;0.28;0.28;;;7.60;56.80;;;;;;5164033;27;20275;-79
2024/04/10 00:27:23;;;;;;;0.45;0.28;;;7.60;63.60;;;;;;5164634;27;20366;-77
2024/04/10 00:29:50;;;;;;;0.30;0.20;;;7.60;81.50;;;;;;5193726;27;20000;-78
2024/04/10 00:32:17;;;;;;;0.30;0.28;;;7.60;76.20;;;;;;5167856;27;20087;-78
2024/04/10 00:34:45;;;;;;;0.38;0.30;;;7.50;86.90;;;;;;5168051;27;20689;-79
2024/04/10 00:37:12;;;;;;;1.27;0.40;;;7.50;92.90;;;;;;5168245;27;20082;-79
2024/04/10 00:39:39;;;;;;;0.20;0.20;;;7.50;96.70;;;;;;5168086;27;20004;-78
2024/04/10 00:42:06;;;;;;;0.38;0.30;;;7.50;99.90;;;;;;5140892;27;20055;-78
2024/04/10 00:44:33;;;;;;;0.10;0.10;;;7.50;99.90;;;;;;5167913;27;20408;-78
2024/04/10 00:47:00;;;;;;;0.70;0.30;;;7.50;99.90;;;;;;5195221;27;20079;-79
2024/04/10 00:49:27;;;;;;;0.20;0.20;;;7.50;99.90;;;;;;5167944;27;20003;-79
2024/04/10 00:51:54;;;;;;;0.50;0.30;;;7.50;99.90;;;;;;5166861;27;20674;-79
2024/04/10 00:54:22;;;;;;;0.40;0.28;;;7.40;99.90;;;;;;5162891;27;20079;-78
2024/04/10 00:56:50;;;;;;;0.20;0.20;;;7.40;99.90;;;;;;5141116;27;20081;-78
2024/04/10 00:59:17;;;;;;;0.63;0.30;;;7.50;99.90;;;;;;5195027;27;20003;-78
2024/04/10 01:01:45;;;;;;;0.10;0.10;;;7.40;99.90;;;;;;5195493;27;20008;-78
2024/04/10 01:04:12;;;;;;;0.20;0.20;;;7.40;99.90;;;;;;5190368;27;20032;-79
2024/04/10 01:06:39;;;;;;;0.52;0.30;;;7.40;99.90;;;;;;5137036;27;20522;-78
2024/04/10 01:09:06;;;;;;;0.80;0.20;;;7.40;99.90;;;;;;5167434;27;20004;-79
2024/04/10 01:11:33;;;;;;;0.38;0.30;;;7.40;99.90;;;;;;5139912;27;20830;-78
2024/04/10 01:14:00;;;;;;;0.60;0.30;;;7.40;99.90;;;;;;5197394;27;20004;-79
2024/04/10 01:16:28;;;;;;;0.75;0.30;;;7.40;99.90;;;;;;5197842;27;20023;-78
2024/04/10 01:18:55;;;;;;;0.70;0.40;;;7.40;99.90;;;;;;5144414;27;20015;-79
2024/04/10 01:21:22;;;;;;;0.30;0.20;;;7.40;99.90;;;;;;5143700;27;20023;-78
2024/04/10 01:23:49;;;;;;;0.93;0.40;;;7.40;99.90;;;;;;5170015;27;20008;-78
2024/04/10 01:26:16;;;;;;;1.15;0.70;;;7.40;99.90;;;;;;5192576;27;20106;-78
2024/04/10 01:28:43;;;;;;;0.65;0.25;;;7.40;99.90;;;;;;5169697;27;20012;-79
2024/04/10 01:31:10;;;;;;;0.30;0.30;;;7.40;99.90;;;;;;5200485;27;20004;-78
2024/04/10 01:33:38;;;;;;;0.70;0.40;;;7.40;99.90;;;;;;5234775;27;20018;-79
2024/04/10 01:36:07;;;;;;;1.35;0.40;;;7.30;99.90;;;;;;5204470;27;20026;-78
2024/04/10 01:38:35;;;;;;;0.80;0.30;;;7.30;99.90;;;;;;5232030;27;20014;-79
2024/04/10 01:41:02;;;;;;;0.55;0.20;;;7.30;99.90;;;;;;5235583;27;20033;-78
2024/04/10 01:43:29;;;;;;;1.58;0.70;;;7.30;99.90;;;;;;5218991;27;20019;-78
2024/04/10 01:45:56;;;;;;;0.75;0.30;;;7.30;99.90;;;;;;5179135;27;20844;-77
2024/04/10 01:48:23;;;;;;;0.47;0.38;;;7.30;99.90;;;;;;5176819;27;20002;-78
2024/04/10 01:50:51;;;;;;;1.60;0.40;;;7.30;1.00;;;;;;5177937;27;20007;-78
2024/04/10 01:53:18;;;;;;;0.73;0.30;;;7.30;1.00;;;;;;5207272;27;20018;-79
2024/04/10 01:55:45;;;;;;;0.40;0.30;;;7.30;1.00;;;;;;5180616;27;20010;-78
2024/04/10 01:58:12;;;;;;;0.40;0.20;;;7.30;1.00;;;;;;5234553;27;19999;-78
2024/04/10 02:00:39;;;;;;;0.47;0.20;;;7.30;1.00;;;;;;5204118;27;20026;-78
2024/04/10 02:03:06;;;;;;;0.70;0.40;;;7.30;1.00;;;;;;5176403;27;20003;-78
2024/04/10 02:05:33;;;;;;;0.40;0.25;;;7.30;1.00;;;;;;5176458;27;20338;-78
2024/04/10 02:08:00;;;;;;;0.30;0.30;;;7.20;1.00;;;;;;5232209;27;20018;-78
2024/04/10 02:10:27;;;;;;;0.40;0.30;;;7.20;1.00;;;;;;5203793;27;20026;-78
2024/04/10 02:12:54;;;;;;;0.75;0.30;;;7.20;1.00;;;;;;5203247;27;20052;-79
2024/04/10 02:15:21;;;;;;;0.98;0.30;;;7.20;1.00;;;;;;5203852;27;20019;-78
2024/04/10 02:17:48;;;;;;;0.82;0.30;;;7.20;1.00;;;;;;5203389;27;20007;-78
2024/04/10 02:20:16;;;;;;;1.00;0.30;;;7.20;9.20;;;;;;5176196;27;20011;-79
2024/04/10 02:22:43;;;;;;;0.30;0.22;;;7.20;24.50;;;;;;5176276;27;20057;-77
2024/04/10 02:25:10;;;;;;;0.47;0.30;;;7.20;50.90;;;;;;5148942;27;20266;-79
2024/04/10 02:27:37;;;;;;;0.77;0.30;;;7.10;63.10;;;;;;5176017;27;20010;-78
2024/04/10 02:30:06;;;;;;;0.55;0.43;;;7.20;84.40;;;;;;5176807;27;20086;-78
2024/04/10 02:32:33;;;;;;;0.45;0.30;;;7.10;81.60;;;;;;5149673;27;20467;-79
2024/04/10 02:35:00;;;;;;;0.43;0.40;;;7.10;93.30;;;;;;5176672;27;20017;-79
2024/04/10 02:37:28;;;;;;;0.30;0.30;;;7.10;93.10;;;;;;5175863;27;20007;-79
2024/04/10 02:39:55;;;;;;;1.77;0.40;;;7.10;97.90;;;;;;5202920;27;20007;-79
2024/04/10 02:42:23;;;;;;;0.20;0.20;;;7.10;98.90;;;;;;5175167;27;20025;-79
2024/04/10 02:44:51;;;;;;;0.22;0.20;;;7.10;99.90;;;;;;5176322;27;20090;-79
2024/04/10 02:47:19;;;;;;;2.03;0.50;;;7.10;99.90;;;;;;5203231;27;20010;-78
2024/04/10 02:49:46;;;;;;;0.95;0.40;;;7.10;99.90;;;;;;5176231;27;20495;-79
2024/04/10 02:52:14;;;;;;;0.57;0.30;;;7.10;99.90;;;;;;5202218;27;20007;-78
2024/04/10 02:54:41;;;;;;;0.43;0.20;;;7.00;99.90;;;;;;5175601;27;20017;-78
2024/04/10 02:57:08;;;;;;;0.28;0.20;;;7.00;99.90;;;;;;5203119;27;20672;-78
2024/04/10 02:59:34;;;;;;;0.35;0.25;;;7.00;99.90;;;;;;5176013;27;20509;-78
2024/04/10 03:02:02;;;;;;;1.35;0.50;;;7.00;99.90;;;;;;5176191;27;19999;-78
2024/04/10 03:04:29;;;;;;;0.85;0.30;;;7.00;99.90;;;;;;5175758;27;20022;-78
2024/04/10 03:06:56;;;;;;;0.17;0.17;;;6.90;99.90;;;;;;5202653;27;20014;-78
2024/04/10 03:09:23;;;;;;;0.55;0.22;;;6.90;99.90;;;;;;5148604;27;20018;-78
2024/04/10 03:11:50;;;;;;;0.30;0.30;;;6.90;99.90;;;;;;5202718;27;20470;-78
2024/04/10 03:14:18;;;;;;;0.30;0.30;;;6.90;99.90;;;;;;5175727;27;20017;-79
2024/04/10 03:16:45;;;;;;;0.20;0.20;;;6.90;99.90;;;;;;5175896;27;20002;-78
2024/04/10 03:19:14;;;;;;;0.30;0.20;;;6.80;99.90;;;;;;5149091;27;20049;-78
2024/04/10 03:21:41;;;;;;;0.28;0.25;;;6.80;99.90;;;;;;5149569;27;20406;-79
2024/04/10 03:24:08;;;;;;;0.43;0.20;;;6.70;99.90;;;;;;5202178;27;20007;-79
2024/04/10 03:26:35;;;;;;;0.20;0.20;;;6.70;99.90;;;;;;5231578;27;20011;-78
2024/04/10 03:29:03;;;;;;;0.22;0.20;;;6.60;99.90;;;;;;5202571;27;20007;-79
2024/04/10 03:31:29;;;;;;;0.43;0.22;;;6.60;99.90;;;;;;5142577;27;20015;-78
2024/04/10 03:33:56;;;;;;;0.32;0.20;;;6.50;99.90;;;;;;5142923;27;20018;-79
2024/04/10 03:36:24;;;;;;;0.20;0.20;;;6.50;99.90;;;;;;5168141;27;20030;-79
2024/04/10 03:38:51;;;;;;;0.17;0.17;;;6.50;99.90;;;;;;5197061;27;20064;-78
2024/04/10 03:41:21;;;;;;;0.10;0.10;;;6.40;99.90;;;;;;5169042;27;20043;-79
2024/04/10 03:43:48;;;;;;;0.90;0.50;;;6.40;99.90;;;;;;5169736;27;20118;-78
2024/04/10 03:46:17;;;;;;;0.75;0.30;;;6.30;99.90;;;;;;5163793;27;20069;-79
2024/04/10 03:48:44;;;;;;;0.10;0.10;;;6.30;99.90;;;;;;5114564;27;20337;-79
2024/04/10 03:51:13;;;;;;;0.70;0.35;;;6.20;99.90;;;;;;5113161;27;20016;-79
2024/04/10 03:53:40;;;;;;;0.28;0.20;;;6.20;99.90;;;;;;5184240;27;20530;-79
2024/04/10 03:56:07;;;;;;;0.20;0.20;;;6.10;99.90;;;;;;5170421;27;20015;-79
2024/04/10 03:58:36;;;;;;;0.60;0.43;;;6.10;99.90;;;;;;5198093;27;20008;-79
2024/04/10 04:01:03;;;;;;;0.57;0.32;;;6.10;99.90;;;;;;5171005;27;20068;-79
2024/04/10 04:03:30;;;;;;;0.32;0.20;;;6.00;99.90;;;;;;5170342;27;20052;-79
2024/04/10 04:05:57;;;;;;;0.22;0.20;;;6.00;99.90;;;;;;5197683;27;20589;-79
2024/04/10 04:08:25;;;;;;;0.43;0.20;;;6.00;99.90;;;;;;5169892;27;20000;-79
2024/04/10 04:10:57;;;;;;;0.20;0.20;;;5.90;99.90;;;;;;5197511;27;20408;-79
2024/04/10 04:13:24;;;;;;;0.20;0.20;;;5.90;99.90;;;;;;5197657;27;20000;-79
2024/04/10 04:15:51;;;;;;;0.63;0.20;;;5.80;99.90;;;;;;5170503;27;20012;-79
2024/04/10 04:18:18;;;;;;;0.25;0.20;;;5.80;99.90;;;;;;5143542;27;20044;-79
2024/04/10 04:20:46;;;;;;;0.50;0.30;;;5.80;99.90;;;;;;5144517;27;20478;-82
2024/04/10 04:23:13;;;;;;;0.20;0.20;;;5.70;99.90;;;;;;5199609;27;20051;-82
2024/04/10 04:25:40;;;;;;;0.65;0.40;;;5.60;99.90;;;;;;5199141;27;20364;-82
2024/04/10 04:28:07;;;;;;;0.32;0.20;;;5.50;99.90;;;;;;5143871;27;20129;-81
2024/04/10 04:30:34;;;;;;;0.28;0.28;;;5.50;99.90;;;;;;5197919;27;20008;-82
2024/04/10 04:33:03;;;;;;;0.57;0.30;;;5.50;99.90;;;;;;5197243;27;20004;-82
2024/04/10 04:35:31;;;;;;;0.30;0.30;;;5.40;1.00;;;;;;5171175;27;20087;-81
2024/04/10 04:37:58;;;;;;;0.30;0.30;;;5.40;1.00;;;;;;5143117;27;20080;-80
2024/04/10 04:40:31;;;;;;;0.43;0.30;;;5.40;1.00;;;;;;5143650;27;20035;-81
2024/04/10 04:43:08;;;;;;;;;;;5.40;1.00;;;;;;5143704;27;20118;-81
2024/04/10 04:45:36;;;;;;;0.17;0.17;;;5.40;1.00;;;;;;5161930;27;19929;-82
2024/04/10 04:48:05;;;;;;;0.22;0.20;;;5.40;1.00;;;;;;5158415;27;20010;-82
2024/04/10 04:50:32;;;;;;;0.68;0.50;;;5.30;34.20;;;;;;5224586;27;20399;-83
2024/04/10 04:52:59;;;;;;;0.47;0.35;;;5.30;84.40;;;;;;5156437;27;20032;-83
2024/04/10 04:55:27;;;;;;;0.93;0.60;;;5.30;99.90;;;;;;5185034;27;20777;-81
2024/04/10 04:57:54;;;;;;;1.30;0.77;;;5.40;99.90;;;;;;5184783;27;20003;-80
2024/04/10 05:00:22;;;;;;;1.10;0.68;;;5.30;99.90;;;;;;5197389;27;20055;-79
2024/04/10 05:02:49;;;;;;;0.85;0.50;;;5.30;99.90;;;;;;5190236;27;20008;-80
2024/04/10 05:05:16;;;;;;;1.52;0.70;;;5.30;99.90;;;;;;5166672;27;20027;-79
2024/04/10 05:07:43;;;;;;;0.73;0.47;;;5.30;99.90;;;;;;5139800;27;20003;-79
2024/04/10 05:10:11;;;;;;;0.82;0.40;;;5.30;99.90;;;;;;5170642;27;20336;-80
2024/04/10 05:12:40;;;;;;;0.30;0.30;;;5.30;99.90;;;;;;5195817;27;20022;-79
2024/04/10 05:15:08;;;;;;;0.40;0.30;;;5.30;99.90;;;;;;5167894;27;20456;-78
2024/04/10 05:17:35;;;;;;;0.30;0.30;;;5.30;99.90;;;;;;5170032;27;20012;-79
2024/04/10 05:20:04;;;;;;;0.40;0.30;;;5.30;99.90;;;;;;5170478;27;20015;-79
2024/04/10 05:22:31;;;;;;;0.35;0.30;;;5.40;99.90;;;;;;5193102;27;20091;-80
2024/04/10 05:24:58;;;;;;;0.30;0.30;;;5.30;99.90;;;;;;5193791;27;20004;-79
2024/04/10 05:27:26;;;;;;;0.25;0.25;;;5.40;99.90;;;;;;5195764;27;20015;-79
2024/04/10 05:30:01;;;;;;;0.32;0.30;;;5.40;99.90;;;;;;5166948;27;20019;-80
2024/04/10 05:32:27;;;;;;;0.55;0.32;;;5.40;99.90;;;;;;5161385;27;20015;-79
2024/04/10 05:34:55;;;;;;;0.30;0.30;;;5.40;1.00;;;;;;5166419;27;20012;-78
2024/04/10 05:37:22;;;;;;;0.70;0.30;;;5.50;1.00;;;;;;5157756;27;20008;-79
2024/04/10 05:40:01;;;;;;;0.73;0.50;;;5.50;1.00;;;;;;5135735;27;20019;-78
2024/04/10 05:42:27;;;;;;;0.88;0.50;;;5.60;1.00;;;;;;5173363;27;20008;-79
2024/04/10 05:44:54;;;;;;;0.30;0.25;;;5.60;99.90;;;;;;5170580;27;20019;-79
2024/04/10 05:47:21;;;;;;;0.30;0.30;;;5.60;1.00;;;;;;5189333;27;20525;-79
2024/04/10 05:49:48;;;;;;;1.25;0.98;;;5.70;1.00;;;;;;5164975;27;20538;-79
2024/04/10 05:52:15;;;;;;;0.70;0.43;;;5.70;99.90;;;;;;5190851;27;20090;-79
2024/04/10 05:54:47;;;;;;;0.52;0.38;;;5.70;99.90;;;;;;5163132;27;20659;-79
2024/04/10 05:57:14;;;;;;;0.70;0.40;;;5.80;99.90;;;;;;5178940;27;20079;-79
2024/04/10 05:59:42;;;;;;;0.38;0.30;;;5.90;1.00;;;;;;5137172;27;20468;-79
2024/04/10 06:02:09;;;;;;;0.70;0.32;;;6.00;1.00;;;;;;5199041;27;20015;-79
2024/04/10 06:04:36;;;;;;;0.30;0.30;;;6.10;1.00;;;;;;5174692;27;20327;-79
2024/04/10 06:07:04;;;;;;;0.22;0.20;;;6.20;1.00;;;;;;5140755;27;20015;-80
2024/04/10 06:09:31;;;;;;;0.38;0.28;;;6.30;38.40;;;;;;5185977;27;20015;-79
2024/04/10 06:11:58;;;;;;;0.40;0.30;;;6.40;8.30;;;;;;5196465;27;20182;-78
2024/04/10 06:14:26;;;;;;;0.52;0.30;;;6.50;1.00;;;;;;5196962;27;20020;-79
2024/04/10 06:16:53;;;;;;;0.80;0.52;;;6.60;1.00;;;;;;5197261;27;20000;-80
2024/04/10 06:19:20;;;;;;;0.47;0.38;;;6.70;1.00;;;;;;5166231;27;20007;-79
2024/04/10 06:21:47;;;;;;;0.50;0.43;;;6.80;1.00;;;;;;5165297;27;20087;-79
2024/04/10 06:24:18;;;;;;;0.60;0.40;;;6.90;1.00;;;;;;5155938;27;20004;-79
2024/04/10 06:26:45;;;;;;;0.90;0.35;;;7.00;99.90;;;;;;5130191;27;20008;-79
2024/04/10 06:29:12;;;;;;;0.80;0.30;;;7.00;99.90;;;;;;5169387;27;20008;-79
2024/04/10 06:31:43;;;;;;;0.30;0.30;;;7.20;99.90;;;;;;5141682;27;20004;-80
2024/04/10 06:34:10;;;;;;;0.60;0.30;;;7.30;99.90;;;;;;5196318;27;20015;-78
2024/04/10 06:36:37;;;;;;;0.43;0.30;;;7.30;99.90;;;;;;5196939;27;20451;-78
2024/04/10 06:39:04;;;;;;;0.30;0.22;;;7.40;99.90;;;;;;5157613;27;20004;-78
2024/04/10 06:41:31;;;;;;;0.60;0.30;;;7.50;8.80;;;;;;5188413;27;20004;-80
2024/04/10 06:43:58;;;;;;;0.30;0.20;;;7.50;1.00;;;;;;5157381;27;20048;-80
2024/04/10 06:46:27;;;;;;;0.55;0.40;;;7.60;1.00;;;;;;5173061;27;20004;-80
2024/04/10 06:48:55;;;;;;;0.22;0.20;;;7.70;1.00;;;;;;5174958;27;20309;-80
2024/04/10 06:51:22;;;;;;;0.40;0.20;;;7.70;99.90;;;;;;5180695;27;20039;-81
2024/04/10 06:53:51;;;;;;;0.45;0.30;;;7.80;99.90;;;;;;5147568;27;20014;-80
2024/04/10 06:56:19;;;;;;;0.20;0.20;;;7.90;99.90;;;;;;5161229;27;20012;-81
2024/04/10 06:58:49;;;;;;;0.32;0.28;;;7.90;99.90;;;;;;5140081;27;20007;-81
2024/04/10 07:01:18;;;;;;;0.30;0.13;;;8.00;99.90;;;;;;5136876;27;20016;-81
2024/04/10 07:03:46;;;;;;;0.68;0.25;;;8.00;99.90;;;;;;5191108;27;20113;-81
2024/04/10 07:06:16;;;;;;;0.20;0.20;;;8.10;99.90;;;;;;5150370;27;20015;-80
2024/04/10 07:08:45;;;;;;;0.40;0.20;;;8.20;99.90;;;;;;5105738;27;20020;-81
2024/04/10 07:11:19;;;;;;;0.30;0.20;;;8.20;99.90;;;;;;5128657;27;20016;-81
2024/04/10 07:13:52;;;;;;;0.20;0.20;;;8.30;99.90;;;;;;5158039;27;20018;-81
2024/04/10 07:16:30;;;;;;;0.17;0.17;;;8.30;51.10;;;;;;5156998;27;20028;-79
2024/04/10 07:18:58;;;;;;;0.50;0.25;;;8.30;33.70;;;;;;5134780;27;20721;-80
2024/04/10 07:21:26;;;;;;;1.00;0.60;;;8.40;1.60;;;;;;5150220;27;20115;-81
2024/04/10 07:23:56;;;;;;;0.57;0.20;;;8.40;1.00;;;;;;5181289;27;20027;-81
2024/04/10 07:26:27;;;;;;;0.60;0.32;;;8.40;1.00;;;;;;5160746;27;20016;-81
2024/04/10 07:28:56;;;;;;;0.35;0.32;;;8.50;1.00;;;;;;5158923;27;20399;-81
2024/04/10 07:31:28;;;;;;;0.32;0.30;;;8.50;1.00;;;;;;5167019;27;21697;-81
2024/04/10 07:33:57;;;;;;;0.30;0.25;;;8.60;99.90;;;;;;5166244;27;20078;-81
2024/04/10 07:36:25;;;;;;;1.77;0.47;;;8.60;1.00;;;;;;5167656;27;20384;-81
2024/04/10 07:38:56;;;;;;;0.10;0.10;;;8.70;1.00;;;;;;5141907;27;20047;-81
2024/04/10 07:41:24;;;;;;;0.40;0.28;;;8.70;99.90;;;;;;5167571;27;20011;-80
2024/04/10 07:43:52;;;;;;;0.65;0.32;;;8.80;99.90;;;;;;5187253;27;20008;-81
2024/04/10 07:46:20;;;;;;;0.45;0.30;;;8.90;99.90;;;;;;5141426;27;20058;-81
2024/04/10 07:48:54;;;;;;;2.25;0.60;;;9.00;1.00;;;;;;5186463;27;20600;-81
2024/04/10 07:51:23;;;;;;;0.98;0.50;;;9.00;99.90;;;;;;5166459;27;20011;-81
2024/04/10 07:53:51;;;;;;;1.15;0.60;;;9.10;99.90;;;;;;5187441;27;20063;-81
2024/04/10 07:56:18;;;;;;;1.33;0.30;;;9.20;61.80;;;;;;5164755;27;20007;-82
2024/04/10 07:58:48;;;;;;;1.45;0.40;;;9.30;99.90;;;;;;5194413;27;20091;-82
2024/04/10 08:01:17;;;;;;;0.38;0.30;;;9.40;99.90;;;;;;5161971;27;20012;-82
2024/04/10 08:03:47;;;;;;;1.20;0.63;;;9.40;1.00;;;;;;5189635;27;20015;-81
2024/04/10 08:06:16;;;;;;;0.93;0.40;;;9.50;99.90;;;;;;5141949;27;20156;-82
2024/04/10 08:08:43;;;;;;;0.68;0.55;;;9.60;99.90;;;;;;5223898;27;20485;-81
2024/04/10 08:11:13;;;;;;;0.63;0.40;;;9.60;13.40;;;;;;5134456;27;20000;-81
2024/04/10 08:13:41;;;;;;;1.10;0.40;;;9.70;87.20;;;;;;5151165;27;20003;-81
2024/04/10 08:16:12;;;;;;;1.25;0.47;;;9.80;71.10;;;;;;5197023;27;20014;-82
2024/04/10 08:18:40;;;;;;;1.58;0.60;;;10.00;99.90;;;;;;5163425;27;20051;-81
2024/04/10 08:21:11;;;;;;;0.32;0.25;;;10.20;99.90;;;;;;5184273;27;20650;-81
2024/04/10 08:23:40;;;;;;;1.13;0.50;;;10.30;99.90;;;;;;5136967;27;20023;-82
2024/04/10 08:26:20;;;;;;;0.93;0.30;;;10.40;99.90;;;;;;5196437;27;20007;-81
2024/04/10 08:28:48;;;;;;;0.40;0.40;;;10.60;99.90;;;;;;5220625;27;20018;-82
2024/04/10 08:31:24;;;;;;;1.17;0.57;;;10.70;99.90;;;;;;5143756;27;20019;-81
2024/04/10 08:33:52;;;;;;;0.85;0.30;;;10.90;99.90;;;;;;5190251;27;20003;-81
2024/04/10 08:36:21;;;;;;;2.25;0.52;;;11.00;99.90;;;;;;5141778;27;20008;-82
2024/04/10 08:38:48;;;;;;;1.05;0.50;;;11.00;99.90;;;;;;5119196;27;20011;-81
2024/04/10 08:41:15;;;;;;;2.00;0.50;;;11.10;99.90;;;;;;5148063;27;20623;-80
2024/04/10 08:43:44;;;;;;;0.70;0.38;;;11.00;99.90;;;;;;5192565;27;20086;-82
2024/04/10 08:46:12;;;;;;;0.32;0.20;;;11.00;99.90;;;;;;5171563;27;20462;-82
2024/04/10 08:48:43;;;;;;;0.52;0.32;;;11.00;99.90;;;;;;5138249;27;20003;-82
2024/04/10 08:51:12;;;;;;;0.85;0.28;;;10.90;99.90;;;;;;5159218;27;20439;-81
2024/04/10 08:53:40;;;;;;;1.38;0.40;;;10.90;99.90;;;;;;5189173;27;20026;-82
2024/04/10 08:56:07;;;;;;;0.68;0.50;;;10.80;99.90;;;;;;5197537;27;20393;-80
2024/04/10 08:58:37;;;;;;;0.38;0.20;;;10.80;99.90;;;;;;5198411;27;20007;-79
2024/04/10 09:01:05;;;;;;;0.98;0.43;;;10.80;99.90;;;;;;5170513;27;20019;-81
2024/04/10 09:03:33;;;;;;;0.70;0.50;;;10.90;99.90;;;;;;5223905;27;20726;-81
2024/04/10 09:06:07;;;;;;;1.90;0.52;;;11.00;99.90;;;;;;5143112;27;20018;-80
2024/04/10 09:08:35;;;;;;;1.60;0.63;;;11.00;99.90;;;;;;5189265;27;20004;-81
2024/04/10 09:11:02;;;;;;;0.85;0.57;;;11.20;99.90;;;;;;5166159;27;20015;-82
2024/04/10 09:13:29;;;;;;;0.52;0.45;;;11.30;99.90;;;;;;5162757;27;20446;-82
2024/04/10 09:16:00;;;;;;;1.02;0.45;;;11.40;99.90;;;;;;5138007;27;20004;-82
2024/04/10 09:18:27;;;;;;;1.02;0.52;;;11.50;99.90;;;;;;5180348;27;20008;-83
2024/04/10 09:21:12;;;;;;;1.02;0.50;;;11.60;99.90;;;;;;5138691;27;20038;-82
2024/04/10 09:23:39;;;;;;;0.55;0.25;;;11.80;99.90;;;;;;5155599;27;20000;-82
2024/04/10 09:26:06;;;;;;;1.25;0.38;;;12.10;99.90;;;;;;5140615;27;20012;-82
2024/04/10 09:28:33;;;;;;;0.57;0.40;;;12.30;99.90;;;;;;5137063;27;20079;-82
2024/04/10 09:31:00;;;;;;;0.90;0.60;;;12.50;99.90;;;;;;5158959;27;20011;-82
2024/04/10 09:33:32;;;;;;;1.58;0.60;;;12.70;99.90;;;;;;5123193;27;20000;-82
2024/04/10 09:36:01;;;;;;;0.80;0.50;;;13.00;99.90;;;;;;5153537;27;20717;-82
2024/04/10 09:38:29;;;;;;;0.32;0.32;;;13.20;99.90;;;;;;5142355;27;20023;-82
2024/04/10 09:41:02;;;;;;;0.40;0.30;;;13.40;99.90;;;;;;5137393;27;20333;-82
2024/04/10 09:43:31;;;;;;;0.30;0.30;;;13.50;99.90;;;;;;5186237;27;20443;-83
2024/04/10 09:46:03;;;;;;;0.75;0.28;;;13.50;99.90;;;;;;5171131;27;20018;-83
2024/04/10 09:48:33;;;;;;;1.45;0.70;;;13.50;99.90;;;;;;5144481;27;20550;-82
2024/04/10 09:51:09;;;;;;;0.82;0.40;;;13.50;99.90;;;;;;5165928;27;20039;-83
2024/04/10 09:53:36;;;;;;;1.30;0.35;;;13.70;99.90;;;;;;5157938;27;20638;-81
2024/04/10 09:56:05;;;;;;;0.73;0.50;;;13.70;99.90;;;;;;5140020;27;20832;-83
2024/04/10 09:58:32;;;;;;;1.48;0.38;;;13.70;99.90;;;;;;5142608;27;20026;-82
2024/04/10 10:01:03;;;;;;;0.47;0.32;;;14.00;99.90;;;;;;5189200;27;20512;-82
2024/04/10 10:03:30;;;;;;;0.63;0.40;;;14.30;99.90;;;;;;5193040;27;20003;-83
2024/04/10 10:06:05;;;;;;;0.30;0.28;;;14.60;99.90;;;;;;5167940;27;20022;-81
2024/04/10 10:08:35;;;;;;;0.35;0.30;;;14.80;99.90;;;;;;5142860;27;20003;-80
2024/04/10 10:11:05;;;;;;;0.30;0.30;;;15.00;99.90;;;;;;5136342;27;20007;-82
2024/04/10 10:13:44;;;;;;;1.02;0.50;;;15.20;99.90;;;;;;5170716;27;20077;-82
2024/04/10 10:16:12;;;;;;;0.50;0.40;;;15.20;99.90;;;;;;5195283;27;20051;-82
2024/04/10 10:18:40;;;;;;;0.70;0.40;;;15.30;99.90;;;;;;5196296;27;20655;-80
2024/04/10 10:21:08;;;;;;;0.50;0.30;;;15.20;99.90;;;;;;5222436;27;20542;-82
2024/04/10 10:23:37;;;;;;;0.88;0.43;;;15.10;99.90;;;;;;5168667;27;20003;-83
2024/04/10 10:26:05;;;;;;;0.40;0.30;;;15.00;99.90;;;;;;5142348;27;20090;-83
2024/04/10 10:28:35;;;;;;;0.77;0.47;;;15.00;99.90;;;;;;5162261;27;20004;-81
2024/04/10 10:31:21;;;;;;;1.00;0.50;;;15.00;99.90;;;;;;5137722;27;20019;-82
2024/04/10 10:33:48;;;;;;;1.10;0.70;;;15.00;99.90;;;;;;5149880;27;20020;-82
2024/04/10 10:36:16;;;;;;;2.13;0.82;;;14.80;99.90;;;;;;5156930;27;20052;-83
2024/04/10 10:38:43;;;;;;;1.70;0.65;;;14.70;99.90;;;;;;5151307;27;20001;-82
2024/04/10 10:41:14;;;;;;;1.08;0.70;;;14.60;99.90;;;;;;5155891;27;20502;-82
2024/04/10 10:43:45;;;;;;;1.77;0.77;;;14.70;99.90;;;;;;5131523;27;20057;-82
2024/04/10 10:46:12;;;;;;;1.15;0.55;;;15.00;99.90;;;;;;5154673;27;20019;-82
2024/04/10 10:48:39;;;;;;;0.60;0.43;;;15.30;99.90;;;;;;5103414;27;20019;-82
2024/04/10 10:51:06;;;;;;;1.05;0.60;;;15.60;99.90;;;;;;5156958;27;20016;-79
2024/04/10 10:53:35;;;;;;;1.23;0.50;;;15.70;99.90;;;;;;5155121;27;20012;-80
2024/04/10 10:56:03;;;;;;;0.93;0.50;;;15.90;99.90;;;;;;5129646;27;20004;-80
2024/04/10 10:58:30;;;;;;;0.95;0.50;;;15.90;99.90;;;;;;5137929;27;20009;-80
2024/04/10 11:00:57;;;;;;;1.58;0.70;;;15.90;99.90;;;;;;5140071;27;20020;-80
2024/04/10 11:03:26;;;;;;;1.83;0.77;;;15.90;99.90;;;;;;5125008;27;20033;-80
2024/04/10 11:06:09;;;;;;;1.20;0.50;;;15.80;99.90;;;;;;5146455;27;20005;-82
2024/04/10 11:08:37;;;;;;;0.63;0.40;;;15.80;99.90;;;;;;5083097;27;20019;-81
2024/04/10 11:11:06;;;;;;;0.90;0.50;;;15.80;99.90;;;;;;5115463;27;20463;-82
2024/04/10 11:13:49;;;;;;;1.40;0.47;;;16.00;99.90;;;;;;5095206;27;20023;-81
2024/04/10 11:16:27;;;;;;;1.35;0.60;;;16.10;99.90;;;;;;5103600;27;20480;-80
2024/04/10 11:18:54;;;;;;;1.63;0.70;;;16.20;99.90;;;;;;5090539;27;20020;-82
2024/04/10 11:21:21;;;;;;;1.00;0.60;;;16.30;99.90;;;;;;5120356;27;20397;-82
2024/04/10 11:23:48;;;;;;;1.20;0.63;;;16.40;99.90;;;;;;5141550;27;20093;-82
2024/04/10 11:26:15;;;;;;;0.40;0.30;;;16.40;99.90;;;;;;5128654;27;20020;-81
2024/04/10 11:28:43;;;;;;;1.60;0.50;;;16.40;99.90;;;;;;5156576;27;20040;-82
2024/04/10 11:31:10;;;;;;;2.72;1.13;;;16.30;99.90;;;;;;5100825;27;20076;-81
2024/04/10 11:33:37;;;;;;;0.88;0.40;;;16.10;99.90;;;;;;5159343;27;20356;-81
2024/04/10 11:36:05;;;;;;;0.45;0.30;;;16.00;99.90;;;;;;5181583;27;20502;-82
2024/04/10 11:38:32;;;;;;;0.75;0.40;;;15.80;99.90;;;;;;5195201;27;20007;-82
2024/04/10 11:40:59;;;;;;;0.52;0.38;;;15.80;99.90;;;;;;5194895;27;20003;-82
2024/04/10 11:43:29;;;;;;;1.83;0.98;;;15.80;99.90;;;;;;5158865;27;20007;-82
2024/04/10 11:45:56;;;;;;;1.70;0.45;;;15.90;99.90;;;;;;5132616;27;20058;-82
2024/04/10 11:48:23;;;;;;;0.50;0.40;;;15.90;99.90;;;;;;5166208;27;20003;-82
2024/04/10 11:50:52;;;;;;;1.02;0.40;;;15.90;99.90;;;;;;5186178;27;20019;-82
2024/04/10 11:53:19;;;;;;;1.25;0.50;;;15.80;99.90;;;;;;5193487;27;20090;-82
2024/04/10 11:55:46;;;;;;;1.30;0.63;;;15.90;99.90;;;;;;5166970;27;20058;-81
2024/04/10 11:58:13;;;;;;;1.15;0.50;;;16.10;99.90;;;;;;5135280;27;20003;-82
2024/04/10 12:00:40;;;;;;;1.00;0.68;;;16.30;99.90;;;;;;5194860;27;20007;-82
2024/04/10 12:03:07;;;;;;;1.25;0.50;;;16.60;99.90;;;;;;5140394;27;20003;-82
2024/04/10 12:05:36;;;;;;;1.83;0.60;;;16.80;99.90;;;;;;5140305;27;20022;-84
2024/04/10 12:08:05;;;;;;;0.55;0.30;;;17.00;99.90;;;;;;5138543;27;20050;-83
2024/04/10 12:10:34;;;;;;;0.60;0.32;;;17.00;99.90;;;;;;5136314;27;20011;-82
2024/04/10 12:13:03;;;;;;;0.75;0.35;;;16.90;99.90;;;;;;5137515;27;20683;-83
2024/04/10 12:15:30;;;;;;;1.27;0.68;;;17.00;99.90;;;;;;5165453;27;20007;-83
2024/04/10 12:17:57;;;;;;;0.68;0.50;;;16.80;99.90;;;;;;5194048;27;20031;-83
2024/04/10 12:20:24;;;;;;;1.00;0.60;;;16.80;99.90;;;;;;5163567;27;20359;-83
2024/04/10 12:22:51;;;;;;;1.42;0.60;;;16.70;99.90;;;;;;5193762;27;20051;-82
2024/04/10 12:25:18;;;;;;;0.57;0.43;;;16.80;99.90;;;;;;5140031;27;20026;-82
2024/04/10 12:27:48;;;;;;;0.52;0.30;;;17.10;99.90;;;;;;5139676;27;20567;-83
2024/04/10 12:30:15;;;;;;;1.45;0.63;;;17.30;99.90;;;;;;5165951;27;20007;-82
2024/04/10 12:32:42;;;;;;;1.13;0.50;;;17.40;99.90;;;;;;5137053;27;20651;-81
2024/04/10 12:38:08;;;;;;;1.10;0.68;;;17.40;99.90;;;;;;5177957;27;20019;-82
2024/04/10 12:40:36;;;;;;;4.78;1.08;;;17.20;99.90;;;;;;5159430;27;20086;-82
2024/04/10 12:43:04;;;;;;;1.10;0.50;;;17.10;99.90;;;;;;5138203;27;20008;-82
2024/04/10 12:45:31;;;;;;;2.30;0.75;;;17.00;99.90;;;;;;5140899;27;20126;-82
2024/04/10 12:47:58;;;;;;;1.75;0.65;;;16.90;99.90;;;;;;5163854;27;20218;-81
2024/04/10 12:50:26;;;;;;;1.10;0.40;;;16.90;99.90;;;;;;5133910;27;20008;-82
2024/04/10 12:52:53;;;;;;;1.73;0.50;;;16.90;99.90;;;;;;5161349;27;20380;-84
2024/04/10 12:55:20;;;;;;;0.70;0.38;;;17.10;99.90;;;;;;5166323;27;20522;-83
2024/04/10 12:57:48;;;;;;;0.77;0.40;;;17.10;99.90;;;;;;5165582;27;20011;-84
2024/04/10 13:00:18;;;;;;;2.67;0.60;;;17.10;99.90;;;;;;5138091;27;20035;-84
2024/04/10 13:02:46;;;;;;;1.08;0.50;;;16.90;99.90;;;;;;5123534;27;20041;-83